sensor_id;sensor_type;location;lat;lon;timestamp;P1;durP1;ratioP1;P2;durP2;ratioP2
63018;SDS011;49105;46.046;10.760;2022-07-30T00:02:20;1.40;;;1.40;;
63018;SDS011;49105;46.046;10.760;2022-07-30T00:04:55;1.40;;;1.40;;
63018;SDS011;49105;46.046;10.760;2022-07-30T00:07:26;1.48;;;1.48;;
63018;SDS011;49105;46.046;10.760;2022-07-30T00:09:52;1.27;;;1.27;;
63018;SDS011;49105;46.046;10.760;2022-07-30T00:12:17;1.48;;;1.48;;
63018;SDS011;49105;46.046;10.760;2022-07-30T00:14:52;1.40;;;1.40;;
63018;SDS011;49105;46.046;10.760;2022-07-30T00:17:27;1.30;;;1.30;;
63018;SDS011;49105;46.046;10.760;2022-07-30T00:20:02;1.30;;;1.30;;
63018;SDS011;49105;46.046;10.760;2022-07-30T00:22:29;1.33;;;1.33;;
63018;SDS011;49105;46.046;10.760;2022-07-30T00:25:04;1.20;;;1.20;;
63018;SDS011;49105;46.046;10.760;2022-07-30T00:27:31;1.25;;;1.25;;
63018;SDS011;49105;46.046;10.760;2022-07-30T00:30:05;1.30;;;1.30;;
63018;SDS011;49105;46.046;10.760;2022-07-30T00:32:31;1.30;;;1.30;;
63018;SDS011;49105;46.046;10.760;2022-07-30T00:35:00;1.40;;;1.40;;
63018;SDS011;49105;46.046;10.760;2022-07-30T00:37:31;1.30;;;1.30;;
63018;SDS011;49105;46.046;10.760;2022-07-30T00:40:04;1.40;;;1.40;;
63018;SDS011;49105;46.046;10.760;2022-07-30T00:42:40;1.20;;;1.20;;
63018;SDS011;49105;46.046;10.760;2022-07-30T00:45:14;1.30;;;1.30;;
63018;SDS011;49105;46.046;10.760;2022-07-30T00:47:47;1.23;;;1.23;;
63018;SDS011;49105;46.046;10.760;2022-07-30T00:50:19;1.20;;;1.20;;
63018;SDS011;49105;46.046;10.760;2022-07-30T00:52:52;1.45;;;1.45;;
63018;SDS011;49105;46.046;10.760;2022-07-30T00:55:27;1.20;;;1.20;;
63018;SDS011;49105;46.046;10.760;2022-07-30T00:57:55;1.30;;;1.30;;
63018;SDS011;49105;46.046;10.760;2022-07-30T01:00:30;1.20;;;1.20;;
63018;SDS011;49105;46.046;10.760;2022-07-30T01:03:01;1.38;;;1.38;;
63018;SDS011;49105;46.046;10.760;2022-07-30T01:11:35;1.48;;;1.48;;
63018;SDS011;49105;46.046;10.760;2022-07-30T01:16:38;1.38;;;1.38;;
63018;SDS011;49105;46.046;10.760;2022-07-30T01:22:26;1.30;;;1.30;;
63018;SDS011;49105;46.046;10.760;2022-07-30T01:30:26;1.30;;;1.30;;
63018;SDS011;49105;46.046;10.760;2022-07-30T01:32:53;1.30;;;1.30;;
63018;SDS011;49105;46.046;10.760;2022-07-30T01:35:26;1.30;;;1.30;;
63018;SDS011;49105;46.046;10.760;2022-07-30T01:38:01;1.30;;;1.30;;
63018;SDS011;49105;46.046;10.760;2022-07-30T01:40:37;1.30;;;1.30;;
63018;SDS011;49105;46.046;10.760;2022-07-30T01:43:04;1.20;;;1.20;;
63018;SDS011;49105;46.046;10.760;2022-07-30T01:45:37;1.50;;;1.50;;
63018;SDS011;49105;46.046;10.760;2022-07-30T01:48:06;1.30;;;1.30;;
63018;SDS011;49105;46.046;10.760;2022-07-30T01:50:33;1.40;;;1.40;;
63018;SDS011;49105;46.046;10.760;2022-07-30T01:53:03;1.55;;;1.55;;
63018;SDS011;49105;46.046;10.760;2022-07-30T01:55:38;1.40;;;1.40;;
63018;SDS011;49105;46.046;10.760;2022-07-30T01:58:09;1.40;;;1.40;;
63018;SDS011;49105;46.046;10.760;2022-07-30T02:00:42;1.60;;;1.60;;
63018;SDS011;49105;46.046;10.760;2022-07-30T02:03:10;1.58;;;1.58;;
63018;SDS011;49105;46.046;10.760;2022-07-30T02:05:44;1.30;;;1.30;;
63018;SDS011;49105;46.046;10.760;2022-07-30T02:11:11;1.30;;;1.30;;
63018;SDS011;49105;46.046;10.760;2022-07-30T02:13:57;1.30;;;1.30;;
63018;SDS011;49105;46.046;10.760;2022-07-30T02:16:30;1.20;;;1.20;;
63018;SDS011;49105;46.046;10.760;2022-07-30T02:19:09;1.35;;;1.35;;
63018;SDS011;49105;46.046;10.760;2022-07-30T02:21:44;1.40;;;1.40;;
63018;SDS011;49105;46.046;10.760;2022-07-30T02:24:23;1.40;;;1.40;;
63018;SDS011;49105;46.046;10.760;2022-07-30T02:29:56;1.30;;;1.30;;
63018;SDS011;49105;46.046;10.760;2022-07-30T02:32:25;1.30;;;1.30;;
63018;SDS011;49105;46.046;10.760;2022-07-30T02:34:59;1.55;;;1.50;;
63018;SDS011;49105;46.046;10.760;2022-07-30T02:37:35;1.40;;;1.40;;
63018;SDS011;49105;46.046;10.760;2022-07-30T02:40:09;1.30;;;1.30;;
63018;SDS011;49105;46.046;10.760;2022-07-30T02:45:58;1.30;;;1.30;;
63018;SDS011;49105;46.046;10.760;2022-07-30T02:48:32;1.30;;;1.30;;
63018;SDS011;49105;46.046;10.760;2022-07-30T02:51:01;1.30;;;1.30;;
63018;SDS011;49105;46.046;10.760;2022-07-30T02:53:34;1.30;;;1.30;;
63018;SDS011;49105;46.046;10.760;2022-07-30T02:56:01;1.30;;;1.30;;
63018;SDS011;49105;46.046;10.760;2022-07-30T02:58:56;1.30;;;1.30;;
63018;SDS011;49105;46.046;10.760;2022-07-30T03:01:32;1.10;;;1.10;;
63018;SDS011;49105;46.046;10.760;2022-07-30T03:04:05;1.20;;;1.20;;
63018;SDS011;49105;46.046;10.760;2022-07-30T03:06:42;1.40;;;1.40;;
63018;SDS011;49105;46.046;10.760;2022-07-30T03:09:18;1.55;;;1.55;;
63018;SDS011;49105;46.046;10.760;2022-07-30T03:11:51;1.40;;;1.40;;
63018;SDS011;49105;46.046;10.760;2022-07-30T03:14:19;1.33;;;1.33;;
63018;SDS011;49105;46.046;10.760;2022-07-30T03:16:46;1.30;;;1.30;;
63018;SDS011;49105;46.046;10.760;2022-07-30T03:19:16;1.40;;;1.40;;
63018;SDS011;49105;46.046;10.760;2022-07-30T03:21:52;1.40;;;1.40;;
63018;SDS011;49105;46.046;10.760;2022-07-30T03:24:24;1.40;;;1.40;;
63018;SDS011;49105;46.046;10.760;2022-07-30T03:26:57;1.40;;;1.40;;
63018;SDS011;49105;46.046;10.760;2022-07-30T03:29:27;1.30;;;1.30;;
63018;SDS011;49105;46.046;10.760;2022-07-30T03:32:01;1.88;;;1.77;;
63018;SDS011;49105;46.046;10.760;2022-07-30T03:34:37;1.30;;;1.30;;
63018;SDS011;49105;46.046;10.760;2022-07-30T03:37:07;1.20;;;1.20;;
63018;SDS011;49105;46.046;10.760;2022-07-30T03:39:43;1.40;;;1.40;;
63018;SDS011;49105;46.046;10.760;2022-07-30T03:42:15;1.40;;;1.40;;
63018;SDS011;49105;46.046;10.760;2022-07-30T03:44:41;1.33;;;1.33;;
63018;SDS011;49105;46.046;10.760;2022-07-30T03:47:13;1.30;;;1.30;;
63018;SDS011;49105;46.046;10.760;2022-07-30T03:49:45;1.20;;;1.20;;
63018;SDS011;49105;46.046;10.760;2022-07-30T03:54:43;1.20;;;1.20;;
63018;SDS011;49105;46.046;10.760;2022-07-30T03:57:09;1.10;;;1.10;;
63018;SDS011;49105;46.046;10.760;2022-07-30T03:59:41;1.20;;;1.20;;
63018;SDS011;49105;46.046;10.760;2022-07-30T04:02:13;1.20;;;1.20;;
63018;SDS011;49105;46.046;10.760;2022-07-30T04:04:42;1.30;;;1.30;;
63018;SDS011;49105;46.046;10.760;2022-07-30T04:07:08;1.30;;;1.30;;
63018;SDS011;49105;46.046;10.760;2022-07-30T04:09:45;1.10;;;1.10;;
63018;SDS011;49105;46.046;10.760;2022-07-30T04:12:17;1.20;;;1.20;;
63018;SDS011;49105;46.046;10.760;2022-07-30T04:14:45;1.20;;;1.20;;
63018;SDS011;49105;46.046;10.760;2022-07-30T04:20:35;1.10;;;1.10;;
63018;SDS011;49105;46.046;10.760;2022-07-30T04:23:15;1.10;;;1.10;;
63018;SDS011;49105;46.046;10.760;2022-07-30T04:25:46;1.38;;;1.38;;
63018;SDS011;49105;46.046;10.760;2022-07-30T04:28:19;1.10;;;1.10;;
63018;SDS011;49105;46.046;10.760;2022-07-30T04:30:48;1.10;;;1.10;;
63018;SDS011;49105;46.046;10.760;2022-07-30T04:33:19;1.00;;;1.00;;
63018;SDS011;49105;46.046;10.760;2022-07-30T04:35:51;2.53;;;1.20;;
63018;SDS011;49105;46.046;10.760;2022-07-30T04:38:22;1.00;;;1.00;;
63018;SDS011;49105;46.046;10.760;2022-07-30T04:43:25;1.30;;;1.30;;
63018;SDS011;49105;46.046;10.760;2022-07-30T04:45:57;1.25;;;1.25;;
63018;SDS011;49105;46.046;10.760;2022-07-30T04:48:29;1.20;;;1.20;;
63018;SDS011;49105;46.046;10.760;2022-07-30T04:51:01;1.30;;;1.30;;
63018;SDS011;49105;46.046;10.760;2022-07-30T04:53:33;1.40;;;1.40;;
63018;SDS011;49105;46.046;10.760;2022-07-30T04:56:05;1.10;;;1.10;;
63018;SDS011;49105;46.046;10.760;2022-07-30T04:58:38;1.10;;;1.10;;
63018;SDS011;49105;46.046;10.760;2022-07-30T05:01:15;1.10;;;1.10;;
63018;SDS011;49105;46.046;10.760;2022-07-30T05:03:46;1.13;;;1.13;;
63018;SDS011;49105;46.046;10.760;2022-07-30T05:06:20;1.10;;;1.10;;
63018;SDS011;49105;46.046;10.760;2022-07-30T05:08:46;1.08;;;1.08;;
63018;SDS011;49105;46.046;10.760;2022-07-30T05:11:15;1.00;;;1.00;;
63018;SDS011;49105;46.046;10.760;2022-07-30T05:13:45;1.20;;;1.20;;
63018;SDS011;49105;46.046;10.760;2022-07-30T05:16:15;1.00;;;1.00;;
63018;SDS011;49105;46.046;10.760;2022-07-30T05:18:48;1.00;;;1.00;;
63018;SDS011;49105;46.046;10.760;2022-07-30T05:21:23;1.00;;;1.00;;
63018;SDS011;49105;46.046;10.760;2022-07-30T05:23:56;1.00;;;1.00;;
63018;SDS011;49105;46.046;10.760;2022-07-30T05:26:27;1.30;;;1.30;;
63018;SDS011;49105;46.046;10.760;2022-07-30T05:29:02;1.30;;;1.30;;
63018;SDS011;49105;46.046;10.760;2022-07-30T05:31:34;1.25;;;1.25;;
63018;SDS011;49105;46.046;10.760;2022-07-30T05:34:09;1.30;;;1.30;;
63018;SDS011;49105;46.046;10.760;2022-07-30T05:36:43;1.20;;;1.20;;
63018;SDS011;49105;46.046;10.760;2022-07-30T05:39:09;1.10;;;1.10;;
63018;SDS011;49105;46.046;10.760;2022-07-30T05:41:40;1.40;;;1.40;;
63018;SDS011;49105;46.046;10.760;2022-07-30T05:46:37;1.10;;;1.10;;
63018;SDS011;49105;46.046;10.760;2022-07-30T05:49:09;1.10;;;1.10;;
63018;SDS011;49105;46.046;10.760;2022-07-30T05:54:47;1.08;;;1.08;;
63018;SDS011;49105;46.046;10.760;2022-07-30T05:57:21;1.00;;;1.00;;
63018;SDS011;49105;46.046;10.760;2022-07-30T05:59:56;1.05;;;1.05;;
63018;SDS011;49105;46.046;10.760;2022-07-30T06:02:25;1.10;;;1.10;;
63018;SDS011;49105;46.046;10.760;2022-07-30T06:05:00;1.10;;;1.10;;
63018;SDS011;49105;46.046;10.760;2022-07-30T06:07:31;1.10;;;1.10;;
63018;SDS011;49105;46.046;10.760;2022-07-30T06:10:03;1.20;;;1.20;;
63018;SDS011;49105;46.046;10.760;2022-07-30T06:12:35;1.10;;;1.10;;
63018;SDS011;49105;46.046;10.760;2022-07-30T06:15:01;1.00;;;1.00;;
63018;SDS011;49105;46.046;10.760;2022-07-30T06:17:33;1.10;;;1.10;;
63018;SDS011;49105;46.046;10.760;2022-07-30T06:19:59;1.00;;;1.00;;
63018;SDS011;49105;46.046;10.760;2022-07-30T06:22:40;1.20;;;1.20;;
63018;SDS011;49105;46.046;10.760;2022-07-30T06:25:11;1.30;;;1.30;;
63018;SDS011;49105;46.046;10.760;2022-07-30T06:27:37;1.10;;;1.10;;
63018;SDS011;49105;46.046;10.760;2022-07-30T06:30:04;1.00;;;1.00;;
63018;SDS011;49105;46.046;10.760;2022-07-30T06:32:37;1.00;;;1.00;;
63018;SDS011;49105;46.046;10.760;2022-07-30T06:35:03;1.42;;;1.42;;
63018;SDS011;49105;46.046;10.760;2022-07-30T06:37:38;1.08;;;1.08;;
63018;SDS011;49105;46.046;10.760;2022-07-30T06:40:06;1.10;;;1.10;;
63018;SDS011;49105;46.046;10.760;2022-07-30T06:42:41;1.20;;;1.20;;
63018;SDS011;49105;46.046;10.760;2022-07-30T06:45:06;1.10;;;1.10;;
63018;SDS011;49105;46.046;10.760;2022-07-30T06:47:44;1.45;;;1.45;;
63018;SDS011;49105;46.046;10.760;2022-07-30T06:50:19;1.10;;;1.10;;
63018;SDS011;49105;46.046;10.760;2022-07-30T06:52:57;1.00;;;1.00;;
63018;SDS011;49105;46.046;10.760;2022-07-30T06:55:28;1.00;;;1.00;;
63018;SDS011;49105;46.046;10.760;2022-07-30T06:58:03;1.10;;;1.10;;
63018;SDS011;49105;46.046;10.760;2022-07-30T07:00:29;1.20;;;1.20;;
63018;SDS011;49105;46.046;10.760;2022-07-30T07:03:01;1.10;;;1.10;;
63018;SDS011;49105;46.046;10.760;2022-07-30T07:05:32;1.20;;;1.20;;
63018;SDS011;49105;46.046;10.760;2022-07-30T07:08:04;1.00;;;1.00;;
63018;SDS011;49105;46.046;10.760;2022-07-30T07:10:35;1.00;;;1.00;;
63018;SDS011;49105;46.046;10.760;2022-07-30T07:13:07;1.20;;;1.20;;
63018;SDS011;49105;46.046;10.760;2022-07-30T07:15:41;1.10;;;1.10;;
63018;SDS011;49105;46.046;10.760;2022-07-30T07:18:12;1.33;;;1.33;;
63018;SDS011;49105;46.046;10.760;2022-07-30T07:20:45;1.10;;;1.10;;
63018;SDS011;49105;46.046;10.760;2022-07-30T07:23:11;1.23;;;1.23;;
63018;SDS011;49105;46.046;10.760;2022-07-30T07:29:01;1.00;;;1.00;;
63018;SDS011;49105;46.046;10.760;2022-07-30T07:31:33;1.00;;;1.00;;
63018;SDS011;49105;46.046;10.760;2022-07-30T07:34:02;0.90;;;0.90;;
63018;SDS011;49105;46.046;10.760;2022-07-30T07:36:28;0.90;;;0.90;;
63018;SDS011;49105;46.046;10.760;2022-07-30T07:39:03;1.08;;;1.08;;
63018;SDS011;49105;46.046;10.760;2022-07-30T07:41:34;1.05;;;1.05;;
63018;SDS011;49105;46.046;10.760;2022-07-30T07:44:06;1.00;;;1.00;;
63018;SDS011;49105;46.046;10.760;2022-07-30T07:46:38;1.00;;;1.00;;
63018;SDS011;49105;46.046;10.760;2022-07-30T07:49:10;1.10;;;1.10;;
63018;SDS011;49105;46.046;10.760;2022-07-30T07:51:35;1.00;;;1.00;;
63018;SDS011;49105;46.046;10.760;2022-07-30T07:54:10;1.00;;;1.00;;
63018;SDS011;49105;46.046;10.760;2022-07-30T07:56:44;1.00;;;1.00;;
63018;SDS011;49105;46.046;10.760;2022-07-30T07:59:10;1.02;;;1.02;;
63018;SDS011;49105;46.046;10.760;2022-07-30T08:01:35;1.00;;;1.00;;
63018;SDS011;49105;46.046;10.760;2022-07-30T08:04:01;1.00;;;1.00;;
63018;SDS011;49105;46.046;10.760;2022-07-30T08:06:33;0.90;;;0.90;;
63018;SDS011;49105;46.046;10.760;2022-07-30T08:09:03;0.90;;;0.90;;
63018;SDS011;49105;46.046;10.760;2022-07-30T08:11:28;0.90;;;0.90;;
63018;SDS011;49105;46.046;10.760;2022-07-30T08:14:03;1.00;;;1.00;;
63018;SDS011;49105;46.046;10.760;2022-07-30T08:16:40;1.00;;;1.00;;
63018;SDS011;49105;46.046;10.760;2022-07-30T08:19:14;1.00;;;1.00;;
63018;SDS011;49105;46.046;10.760;2022-07-30T08:21:40;0.90;;;0.90;;
63018;SDS011;49105;46.046;10.760;2022-07-30T08:24:11;1.20;;;1.20;;
63018;SDS011;49105;46.046;10.760;2022-07-30T08:26:46;1.00;;;1.00;;
63018;SDS011;49105;46.046;10.760;2022-07-30T08:29:20;1.00;;;1.00;;
63018;SDS011;49105;46.046;10.760;2022-07-30T08:31:52;0.90;;;0.90;;
63018;SDS011;49105;46.046;10.760;2022-07-30T08:34:17;1.00;;;1.00;;
63018;SDS011;49105;46.046;10.760;2022-07-30T08:36:47;1.33;;;1.33;;
63018;SDS011;49105;46.046;10.760;2022-07-30T08:39:13;1.00;;;1.00;;
63018;SDS011;49105;46.046;10.760;2022-07-30T08:41:44;1.00;;;1.00;;
63018;SDS011;49105;46.046;10.760;2022-07-30T08:44:13;0.90;;;0.90;;
63018;SDS011;49105;46.046;10.760;2022-07-30T08:46:42;0.85;;;0.85;;
63018;SDS011;49105;46.046;10.760;2022-07-30T08:49:11;1.10;;;1.10;;
63018;SDS011;49105;46.046;10.760;2022-07-30T08:51:41;1.10;;;1.10;;
63018;SDS011;49105;46.046;10.760;2022-07-30T08:54:13;1.00;;;1.00;;
63018;SDS011;49105;46.046;10.760;2022-07-30T08:56:39;1.00;;;1.00;;
63018;SDS011;49105;46.046;10.760;2022-07-30T09:02:27;1.10;;;1.10;;
63018;SDS011;49105;46.046;10.760;2022-07-30T09:04:58;1.00;;;1.00;;
63018;SDS011;49105;46.046;10.760;2022-07-30T09:07:36;0.90;;;0.90;;
63018;SDS011;49105;46.046;10.760;2022-07-30T09:10:09;1.00;;;1.00;;
63018;SDS011;49105;46.046;10.760;2022-07-30T09:12:42;1.10;;;1.10;;
63018;SDS011;49105;46.046;10.760;2022-07-30T09:20:20;1.20;;;1.20;;
63018;SDS011;49105;46.046;10.760;2022-07-30T09:22:55;1.10;;;1.10;;
63018;SDS011;49105;46.046;10.760;2022-07-30T09:25:33;1.10;;;1.10;;
63018;SDS011;49105;46.046;10.760;2022-07-30T09:28:06;1.00;;;1.00;;
63018;SDS011;49105;46.046;10.760;2022-07-30T09:36:00;1.00;;;1.00;;
63018;SDS011;49105;46.046;10.760;2022-07-30T09:41:32;1.10;;;1.10;;
63018;SDS011;49105;46.046;10.760;2022-07-30T09:44:03;1.15;;;1.15;;
63018;SDS011;49105;46.046;10.760;2022-07-30T09:46:43;1.00;;;1.00;;
63018;SDS011;49105;46.046;10.760;2022-07-30T09:49:18;1.00;;;1.00;;
63018;SDS011;49105;46.046;10.760;2022-07-30T09:51:51;1.00;;;1.00;;
63018;SDS011;49105;46.046;10.760;2022-07-30T09:54:25;1.00;;;1.00;;
63018;SDS011;49105;46.046;10.760;2022-07-30T09:57:10;1.00;;;1.00;;
63018;SDS011;49105;46.046;10.760;2022-07-30T09:59:38;1.00;;;1.00;;
63018;SDS011;49105;46.046;10.760;2022-07-30T10:02:04;1.10;;;1.10;;
63018;SDS011;49105;46.046;10.760;2022-07-30T10:04:34;1.10;;;1.10;;
63018;SDS011;49105;46.046;10.760;2022-07-30T10:07:17;1.15;;;1.05;;
63018;SDS011;49105;46.046;10.760;2022-07-30T10:09:50;1.00;;;1.00;;
63018;SDS011;49105;46.046;10.760;2022-07-30T10:12:18;0.77;;;0.77;;
63018;SDS011;49105;46.046;10.760;2022-07-30T10:14:52;1.10;;;1.10;;
63018;SDS011;49105;46.046;10.760;2022-07-30T10:17:27;0.90;;;0.90;;
63018;SDS011;49105;46.046;10.760;2022-07-30T10:20:02;1.00;;;1.00;;
63018;SDS011;49105;46.046;10.760;2022-07-30T10:22:33;1.25;;;1.25;;
63018;SDS011;49105;46.046;10.760;2022-07-30T10:25:06;1.10;;;1.10;;
63018;SDS011;49105;46.046;10.760;2022-07-30T10:27:38;0.90;;;0.90;;
63018;SDS011;49105;46.046;10.760;2022-07-30T10:30:13;1.00;;;1.00;;
63018;SDS011;49105;46.046;10.760;2022-07-30T10:38:38;1.25;;;1.25;;
63018;SDS011;49105;46.046;10.760;2022-07-30T10:41:22;1.10;;;1.10;;
63018;SDS011;49105;46.046;10.760;2022-07-30T10:49:29;1.00;;;1.00;;
63018;SDS011;49105;46.046;10.760;2022-07-30T10:52:02;1.23;;;1.23;;
63018;SDS011;49105;46.046;10.760;2022-07-30T11:00:29;1.00;;;1.00;;
63018;SDS011;49105;46.046;10.760;2022-07-30T11:02:30;0.93;;;0.93;;
63018;SDS011;49105;46.046;10.760;2022-07-30T11:07:43;1.00;;;1.00;;
63018;SDS011;49105;46.046;10.760;2022-07-30T11:12:59;1.00;;;1.00;;
63018;SDS011;49105;46.046;10.760;2022-07-30T11:18:18;0.98;;;0.98;;
63018;SDS011;49105;46.046;10.760;2022-07-30T11:21:12;1.00;;;1.00;;
63018;SDS011;49105;46.046;10.760;2022-07-30T11:23:46;1.00;;;1.00;;
63018;SDS011;49105;46.046;10.760;2022-07-30T11:29:31;1.30;;;1.30;;
63018;SDS011;49105;46.046;10.760;2022-07-30T11:32:17;1.10;;;1.10;;
63018;SDS011;49105;46.046;10.760;2022-07-30T11:37:57;1.10;;;1.10;;
63018;SDS011;49105;46.046;10.760;2022-07-30T11:40:32;1.00;;;1.00;;
63018;SDS011;49105;46.046;10.760;2022-07-30T11:51:26;1.00;;;1.00;;
63018;SDS011;49105;46.046;10.760;2022-07-30T11:54:05;1.02;;;1.02;;
63018;SDS011;49105;46.046;10.760;2022-07-30T11:56:34;0.93;;;0.93;;
63018;SDS011;49105;46.046;10.760;2022-07-30T11:59:06;0.90;;;0.90;;
63018;SDS011;49105;46.046;10.760;2022-07-30T12:04:18;0.90;;;0.90;;
63018;SDS011;49105;46.046;10.760;2022-07-30T12:10:12;1.00;;;1.00;;
63018;SDS011;49105;46.046;10.760;2022-07-30T12:12:44;0.90;;;0.90;;
63018;SDS011;49105;46.046;10.760;2022-07-30T12:15:31;0.90;;;0.90;;
63018;SDS011;49105;46.046;10.760;2022-07-30T12:18:00;0.80;;;0.80;;
63018;SDS011;49105;46.046;10.760;2022-07-30T12:20:33;1.00;;;1.00;;
63018;SDS011;49105;46.046;10.760;2022-07-30T12:23:00;0.90;;;0.90;;
63018;SDS011;49105;46.046;10.760;2022-07-30T12:25:26;1.10;;;1.10;;
63018;SDS011;49105;46.046;10.760;2022-07-30T12:28:01;1.10;;;1.10;;
63018;SDS011;49105;46.046;10.760;2022-07-30T12:30:33;1.00;;;1.00;;
63018;SDS011;49105;46.046;10.760;2022-07-30T12:33:08;0.90;;;0.90;;
63018;SDS011;49105;46.046;10.760;2022-07-30T12:35:50;0.90;;;0.90;;
63018;SDS011;49105;46.046;10.760;2022-07-30T12:38:19;0.90;;;0.90;;
63018;SDS011;49105;46.046;10.760;2022-07-30T12:40:55;0.82;;;0.82;;
63018;SDS011;49105;46.046;10.760;2022-07-30T12:46:14;0.90;;;0.90;;
63018;SDS011;49105;46.046;10.760;2022-07-30T12:49:17;0.80;;;0.80;;
63018;SDS011;49105;46.046;10.760;2022-07-30T12:51:49;2.58;;;1.10;;
63018;SDS011;49105;46.046;10.760;2022-07-30T12:54:23;0.80;;;0.80;;
63018;SDS011;49105;46.046;10.760;2022-07-30T12:57:02;0.80;;;0.80;;
63018;SDS011;49105;46.046;10.760;2022-07-30T12:59:30;0.90;;;0.90;;
63018;SDS011;49105;46.046;10.760;2022-07-30T13:02:00;0.77;;;0.77;;
63018;SDS011;49105;46.046;10.760;2022-07-30T13:04:27;0.85;;;0.85;;
63018;SDS011;49105;46.046;10.760;2022-07-30T13:07:09;0.80;;;0.80;;
63018;SDS011;49105;46.046;10.760;2022-07-30T13:09:42;0.90;;;0.90;;
63018;SDS011;49105;46.046;10.760;2022-07-30T13:12:14;0.88;;;0.88;;
63018;SDS011;49105;46.046;10.760;2022-07-30T13:14:48;0.90;;;0.90;;
63018;SDS011;49105;46.046;10.760;2022-07-30T13:17:14;0.90;;;0.90;;
63018;SDS011;49105;46.046;10.760;2022-07-30T13:19:39;0.80;;;0.80;;
63018;SDS011;49105;46.046;10.760;2022-07-30T13:22:14;0.88;;;0.88;;
63018;SDS011;49105;46.046;10.760;2022-07-30T13:24:46;0.90;;;0.90;;
63018;SDS011;49105;46.046;10.760;2022-07-30T13:27:11;0.90;;;0.90;;
63018;SDS011;49105;46.046;10.760;2022-07-30T13:29:46;0.90;;;0.90;;
63018;SDS011;49105;46.046;10.760;2022-07-30T13:32:21;0.90;;;0.90;;
63018;SDS011;49105;46.046;10.760;2022-07-30T13:34:52;1.00;;;1.00;;
63018;SDS011;49105;46.046;10.760;2022-07-30T13:37:17;0.90;;;0.90;;
63018;SDS011;49105;46.046;10.760;2022-07-30T13:43:05;0.80;;;0.80;;
63018;SDS011;49105;46.046;10.760;2022-07-30T13:45:37;0.80;;;0.80;;
63018;SDS011;49105;46.046;10.760;2022-07-30T13:48:02;0.90;;;0.90;;
63018;SDS011;49105;46.046;10.760;2022-07-30T13:50:34;1.00;;;1.00;;
63018;SDS011;49105;46.046;10.760;2022-07-30T13:53:06;0.80;;;0.80;;
63018;SDS011;49105;46.046;10.760;2022-07-30T13:55:36;0.90;;;0.90;;
63018;SDS011;49105;46.046;10.760;2022-07-30T13:58:06;0.95;;;0.95;;
63018;SDS011;49105;46.046;10.760;2022-07-30T14:00:38;0.90;;;0.90;;
63018;SDS011;49105;46.046;10.760;2022-07-30T14:03:11;1.05;;;1.05;;
63018;SDS011;49105;46.046;10.760;2022-07-30T14:05:45;0.90;;;0.90;;
63018;SDS011;49105;46.046;10.760;2022-07-30T14:08:17;0.90;;;0.90;;
63018;SDS011;49105;46.046;10.760;2022-07-30T14:10:49;0.80;;;0.80;;
63018;SDS011;49105;46.046;10.760;2022-07-30T14:13:18;0.88;;;0.88;;
63018;SDS011;49105;46.046;10.760;2022-07-30T14:15:53;0.80;;;0.80;;
63018;SDS011;49105;46.046;10.760;2022-07-30T14:18:24;0.82;;;0.82;;
63018;SDS011;49105;46.046;10.760;2022-07-30T14:20:56;0.88;;;0.88;;
63018;SDS011;49105;46.046;10.760;2022-07-30T14:23:31;0.80;;;0.80;;
63018;SDS011;49105;46.046;10.760;2022-07-30T14:25:57;0.88;;;0.88;;
63018;SDS011;49105;46.046;10.760;2022-07-30T14:28:33;1.10;;;1.10;;
63018;SDS011;49105;46.046;10.760;2022-07-30T14:30:59;0.90;;;0.90;;
63018;SDS011;49105;46.046;10.760;2022-07-30T14:33:30;0.90;;;0.90;;
63018;SDS011;49105;46.046;10.760;2022-07-30T14:36:08;0.80;;;0.80;;
63018;SDS011;49105;46.046;10.760;2022-07-30T14:38:34;1.13;;;1.13;;
63018;SDS011;49105;46.046;10.760;2022-07-30T14:41:02;0.75;;;0.75;;
63018;SDS011;49105;46.046;10.760;2022-07-30T14:43:34;0.82;;;0.82;;
63018;SDS011;49105;46.046;10.760;2022-07-30T14:46:11;0.80;;;0.80;;
63018;SDS011;49105;46.046;10.760;2022-07-30T14:48:46;0.80;;;0.80;;
63018;SDS011;49105;46.046;10.760;2022-07-30T14:51:17;0.90;;;0.90;;
63018;SDS011;49105;46.046;10.760;2022-07-30T14:53:52;0.80;;;0.80;;
63018;SDS011;49105;46.046;10.760;2022-07-30T14:56:23;0.80;;;0.80;;
63018;SDS011;49105;46.046;10.760;2022-07-30T14:58:50;0.90;;;0.90;;
63018;SDS011;49105;46.046;10.760;2022-07-30T15:01:19;0.85;;;0.85;;
63018;SDS011;49105;46.046;10.760;2022-07-30T15:03:54;0.80;;;0.80;;
63018;SDS011;49105;46.046;10.760;2022-07-30T15:06:23;0.93;;;0.93;;
63018;SDS011;49105;46.046;10.760;2022-07-30T15:08:55;0.80;;;0.80;;
63018;SDS011;49105;46.046;10.760;2022-07-30T15:11:24;1.00;;;1.00;;
63018;SDS011;49105;46.046;10.760;2022-07-30T15:17:12;0.90;;;0.90;;
63018;SDS011;49105;46.046;10.760;2022-07-30T15:19:41;1.00;;;1.00;;
63018;SDS011;49105;46.046;10.760;2022-07-30T15:22:13;1.00;;;1.00;;
63018;SDS011;49105;46.046;10.760;2022-07-30T15:24:45;1.00;;;1.00;;
63018;SDS011;49105;46.046;10.760;2022-07-30T15:27:20;0.98;;;0.98;;
63018;SDS011;49105;46.046;10.760;2022-07-30T15:29:51;1.00;;;1.00;;
63018;SDS011;49105;46.046;10.760;2022-07-30T15:32:23;0.90;;;0.90;;
63018;SDS011;49105;46.046;10.760;2022-07-30T15:34:55;0.80;;;0.80;;
63018;SDS011;49105;46.046;10.760;2022-07-30T15:37:22;0.90;;;0.90;;
63018;SDS011;49105;46.046;10.760;2022-07-30T15:39:48;1.17;;;0.85;;
63018;SDS011;49105;46.046;10.760;2022-07-30T15:42:20;0.77;;;0.77;;
63018;SDS011;49105;46.046;10.760;2022-07-30T15:44:54;0.85;;;0.85;;
63018;SDS011;49105;46.046;10.760;2022-07-30T15:47:20;0.80;;;0.80;;
63018;SDS011;49105;46.046;10.760;2022-07-30T15:49:55;0.80;;;0.80;;
63018;SDS011;49105;46.046;10.760;2022-07-30T15:52:29;0.70;;;0.70;;
63018;SDS011;49105;46.046;10.760;2022-07-30T15:55:02;0.85;;;0.85;;
63018;SDS011;49105;46.046;10.760;2022-07-30T15:57:34;1.02;;;1.02;;
63018;SDS011;49105;46.046;10.760;2022-07-30T16:00:06;0.80;;;0.80;;
63018;SDS011;49105;46.046;10.760;2022-07-30T16:02:36;0.90;;;0.90;;
63018;SDS011;49105;46.046;10.760;2022-07-30T16:05:08;1.02;;;1.02;;
63018;SDS011;49105;46.046;10.760;2022-07-30T16:07:41;3.55;;;0.80;;
63018;SDS011;49105;46.046;10.760;2022-07-30T16:10:16;0.98;;;0.98;;
63018;SDS011;49105;46.046;10.760;2022-07-30T16:12:48;1.00;;;1.00;;
63018;SDS011;49105;46.046;10.760;2022-07-30T16:15:19;0.90;;;0.90;;
63018;SDS011;49105;46.046;10.760;2022-07-30T16:17:54;0.80;;;0.80;;
63018;SDS011;49105;46.046;10.760;2022-07-30T16:20:23;0.80;;;0.80;;
63018;SDS011;49105;46.046;10.760;2022-07-30T16:22:57;0.90;;;0.90;;
63018;SDS011;49105;46.046;10.760;2022-07-30T16:25:29;0.80;;;0.80;;
63018;SDS011;49105;46.046;10.760;2022-07-30T16:28:04;1.10;;;1.10;;
63018;SDS011;49105;46.046;10.760;2022-07-30T16:30:38;1.08;;;1.08;;
63018;SDS011;49105;46.046;10.760;2022-07-30T16:33:15;0.90;;;0.90;;
63018;SDS011;49105;46.046;10.760;2022-07-30T16:35:47;0.90;;;0.90;;
63018;SDS011;49105;46.046;10.760;2022-07-30T16:38:17;1.00;;;1.00;;
63018;SDS011;49105;46.046;10.760;2022-07-30T16:40:50;1.10;;;1.10;;
63018;SDS011;49105;46.046;10.760;2022-07-30T16:43:18;1.00;;;1.00;;
63018;SDS011;49105;46.046;10.760;2022-07-30T16:45:53;1.30;;;1.30;;
63018;SDS011;49105;46.046;10.760;2022-07-30T16:51:24;1.30;;;1.30;;
63018;SDS011;49105;46.046;10.760;2022-07-30T16:53:56;1.20;;;1.20;;
63018;SDS011;49105;46.046;10.760;2022-07-30T16:56:28;1.10;;;1.10;;
63018;SDS011;49105;46.046;10.760;2022-07-30T16:58:54;1.65;;;1.55;;
63018;SDS011;49105;46.046;10.760;2022-07-30T17:01:31;1.10;;;1.10;;